sensor_id;sensor_type;location;lat;lon;timestamp;P1;durP1;ratioP1;P2;durP2;ratioP2
50689;SDS011;54375;48.298;11.238;2022-10-26T00:00:11;8.77;;;5.10;;
50689;SDS011;54375;48.298;11.238;2022-10-26T00:03:14;12.65;;;7.13;;
50689;SDS011;54375;48.298;11.238;2022-10-26T00:06:17;13.30;;;6.90;;
50689;SDS011;54375;48.298;11.238;2022-10-26T00:09:20;9.25;;;6.75;;
50689;SDS011;54375;48.298;11.238;2022-10-26T00:15:23;10.40;;;5.95;;
50689;SDS011;54375;48.298;11.238;2022-10-26T00:18:25;16.17;;;6.43;;
50689;SDS011;54375;48.298;11.238;2022-10-26T00:21:31;9.18;;;5.25;;
50689;SDS011;54375;48.298;11.238;2022-10-26T00:24:33;9.68;;;4.95;;
50689;SDS011;54375;48.298;11.238;2022-10-26T00:27:36;12.80;;;5.40;;
50689;SDS011;54375;48.298;11.238;2022-10-26T00:30:37;11.27;;;5.85;;
50689;SDS011;54375;48.298;11.238;2022-10-26T00:33:41;13.88;;;6.00;;
50689;SDS011;54375;48.298;11.238;2022-10-26T00:36:41;11.48;;;5.63;;
50689;SDS011;54375;48.298;11.238;2022-10-26T00:39:43;12.67;;;6.30;;
50689;SDS011;54375;48.298;11.238;2022-10-26T00:42:44;8.27;;;5.67;;
50689;SDS011;54375;48.298;11.238;2022-10-26T00:45:45;8.17;;;5.30;;
50689;SDS011;54375;48.298;11.238;2022-10-26T00:48:50;8.18;;;6.05;;
50689;SDS011;54375;48.298;11.238;2022-10-26T00:51:55;10.27;;;6.30;;
50689;SDS011;54375;48.298;11.238;2022-10-26T00:54:56;10.93;;;7.35;;
50689;SDS011;54375;48.298;11.238;2022-10-26T00:57:57;10.10;;;6.57;;
50689;SDS011;54375;48.298;11.238;2022-10-26T01:00:59;11.73;;;6.53;;
50689;SDS011;54375;48.298;11.238;2022-10-26T01:04:01;9.90;;;6.97;;
50689;SDS011;54375;48.298;11.238;2022-10-26T01:07:02;9.30;;;6.10;;
50689;SDS011;54375;48.298;11.238;2022-10-26T01:10:05;9.13;;;6.68;;
50689;SDS011;54375;48.298;11.238;2022-10-26T01:13:07;8.52;;;6.38;;
50689;SDS011;54375;48.298;11.238;2022-10-26T01:19:37;10.32;;;5.93;;
50689;SDS011;54375;48.298;11.238;2022-10-26T01:22:59;7.65;;;5.45;;
50689;SDS011;54375;48.298;11.238;2022-10-26T01:26:20;10.20;;;5.60;;
50689;SDS011;54375;48.298;11.238;2022-10-26T01:29:47;8.90;;;5.88;;
50689;SDS011;54375;48.298;11.238;2022-10-26T01:33:12;14.90;;;6.10;;
50689;SDS011;54375;48.298;11.238;2022-10-26T01:36:23;9.35;;;5.88;;
50689;SDS011;54375;48.298;11.238;2022-10-26T01:39:32;7.18;;;4.90;;
50689;SDS011;54375;48.298;11.238;2022-10-26T01:42:39;7.93;;;5.45;;
50689;SDS011;54375;48.298;11.238;2022-10-26T01:45:45;10.93;;;5.15;;
50689;SDS011;54375;48.298;11.238;2022-10-26T01:48:49;7.35;;;5.03;;
50689;SDS011;54375;48.298;11.238;2022-10-26T01:51:53;8.23;;;4.70;;
50689;SDS011;54375;48.298;11.238;2022-10-26T01:54:59;8.23;;;4.93;;
50689;SDS011;54375;48.298;11.238;2022-10-26T01:58:02;9.30;;;5.00;;
50689;SDS011;54375;48.298;11.238;2022-10-26T02:01:17;8.98;;;5.25;;
50689;SDS011;54375;48.298;11.238;2022-10-26T02:04:32;8.48;;;4.45;;
50689;SDS011;54375;48.298;11.238;2022-10-26T02:07:41;10.50;;;4.88;;
50689;SDS011;54375;48.298;11.238;2022-10-26T02:10:53;7.35;;;4.70;;
50689;SDS011;54375;48.298;11.238;2022-10-26T02:14:04;12.00;;;5.22;;
50689;SDS011;54375;48.298;11.238;2022-10-26T02:17:12;8.90;;;4.95;;
50689;SDS011;54375;48.298;11.238;2022-10-26T02:20:22;7.22;;;4.38;;
50689;SDS011;54375;48.298;11.238;2022-10-26T02:23:27;9.13;;;5.03;;
50689;SDS011;54375;48.298;11.238;2022-10-26T02:26:31;7.97;;;4.68;;
50689;SDS011;54375;48.298;11.238;2022-10-26T02:29:34;9.15;;;5.18;;
50689;SDS011;54375;48.298;11.238;2022-10-26T02:32:41;7.57;;;5.25;;
50689;SDS011;54375;48.298;11.238;2022-10-26T02:35:49;9.10;;;5.43;;
50689;SDS011;54375;48.298;11.238;2022-10-26T02:38:54;8.35;;;4.85;;
50689;SDS011;54375;48.298;11.238;2022-10-26T02:41:56;9.40;;;4.80;;
50689;SDS011;54375;48.298;11.238;2022-10-26T02:45:01;11.57;;;5.57;;
50689;SDS011;54375;48.298;11.238;2022-10-26T02:48:06;8.52;;;5.35;;
50689;SDS011;54375;48.298;11.238;2022-10-26T02:51:10;9.02;;;5.90;;
50689;SDS011;54375;48.298;11.238;2022-10-26T02:54:15;8.60;;;4.80;;
50689;SDS011;54375;48.298;11.238;2022-10-26T02:57:24;8.73;;;5.55;;
50689;SDS011;54375;48.298;11.238;2022-10-26T03:00:31;12.40;;;5.10;;
50689;SDS011;54375;48.298;11.238;2022-10-26T03:03:33;17.98;;;5.65;;
50689;SDS011;54375;48.298;11.238;2022-10-26T03:06:36;10.10;;;5.53;;
50689;SDS011;54375;48.298;11.238;2022-10-26T03:09:36;7.82;;;5.00;;
50689;SDS011;54375;48.298;11.238;2022-10-26T03:12:37;9.00;;;4.77;;
50689;SDS011;54375;48.298;11.238;2022-10-26T03:15:39;9.93;;;5.53;;
50689;SDS011;54375;48.298;11.238;2022-10-26T03:18:40;8.38;;;4.85;;
50689;SDS011;54375;48.298;11.238;2022-10-26T03:21:43;8.93;;;5.85;;
50689;SDS011;54375;48.298;11.238;2022-10-26T03:24:44;7.68;;;5.07;;
50689;SDS011;54375;48.298;11.238;2022-10-26T03:27:45;11.13;;;5.67;;
50689;SDS011;54375;48.298;11.238;2022-10-26T03:30:46;8.52;;;4.97;;
50689;SDS011;54375;48.298;11.238;2022-10-26T03:33:47;11.03;;;4.70;;
50689;SDS011;54375;48.298;11.238;2022-10-26T03:36:49;9.23;;;5.00;;
50689;SDS011;54375;48.298;11.238;2022-10-26T03:39:50;8.20;;;4.70;;
50689;SDS011;54375;48.298;11.238;2022-10-26T03:42:51;6.20;;;4.30;;
50689;SDS011;54375;48.298;11.238;2022-10-26T03:45:52;7.57;;;4.28;;
50689;SDS011;54375;48.298;11.238;2022-10-26T03:48:53;8.97;;;4.67;;
50689;SDS011;54375;48.298;11.238;2022-10-26T03:51:56;8.00;;;4.30;;
50689;SDS011;54375;48.298;11.238;2022-10-26T03:54:57;9.13;;;4.13;;
50689;SDS011;54375;48.298;11.238;2022-10-26T03:57:58;12.57;;;4.73;;
50689;SDS011;54375;48.298;11.238;2022-10-26T04:00:59;6.43;;;4.37;;
50689;SDS011;54375;48.298;11.238;2022-10-26T04:04:00;7.95;;;4.75;;
50689;SDS011;54375;48.298;11.238;2022-10-26T04:07:02;7.40;;;4.38;;
50689;SDS011;54375;48.298;11.238;2022-10-26T04:10:04;6.80;;;4.72;;
50689;SDS011;54375;48.298;11.238;2022-10-26T04:13:05;8.75;;;4.75;;
50689;SDS011;54375;48.298;11.238;2022-10-26T04:19:08;10.00;;;5.45;;
50689;SDS011;54375;48.298;11.238;2022-10-26T04:22:11;6.32;;;4.63;;
50689;SDS011;54375;48.298;11.238;2022-10-26T04:25:12;9.15;;;4.70;;
50689;SDS011;54375;48.298;11.238;2022-10-26T04:28:13;8.00;;;4.70;;
50689;SDS011;54375;48.298;11.238;2022-10-26T04:31:14;10.40;;;5.00;;
50689;SDS011;54375;48.298;11.238;2022-10-26T04:34:15;5.60;;;3.90;;
50689;SDS011;54375;48.298;11.238;2022-10-26T04:37:17;8.50;;;4.83;;
50689;SDS011;54375;48.298;11.238;2022-10-26T04:40:18;8.50;;;4.15;;
50689;SDS011;54375;48.298;11.238;2022-10-26T04:43:20;9.63;;;4.95;;
50689;SDS011;54375;48.298;11.238;2022-10-26T04:46:21;9.15;;;4.93;;
50689;SDS011;54375;48.298;11.238;2022-10-26T04:49:22;7.18;;;4.47;;
50689;SDS011;54375;48.298;11.238;2022-10-26T04:52:25;9.43;;;4.20;;
50689;SDS011;54375;48.298;11.238;2022-10-26T04:55:26;10.48;;;5.25;;
50689;SDS011;54375;48.298;11.238;2022-10-26T04:58:27;12.00;;;6.40;;
50689;SDS011;54375;48.298;11.238;2022-10-26T05:01:29;12.70;;;6.13;;
50689;SDS011;54375;48.298;11.238;2022-10-26T05:04:31;9.18;;;5.50;;
50689;SDS011;54375;48.298;11.238;2022-10-26T05:07:33;9.17;;;5.20;;
50689;SDS011;54375;48.298;11.238;2022-10-26T05:10:34;8.68;;;5.20;;
50689;SDS011;54375;48.298;11.238;2022-10-26T05:13:35;7.27;;;4.37;;
50689;SDS011;54375;48.298;11.238;2022-10-26T05:16:36;8.10;;;4.97;;
50689;SDS011;54375;48.298;11.238;2022-10-26T05:19:38;13.75;;;6.35;;
50689;SDS011;54375;48.298;11.238;2022-10-26T05:22:40;10.33;;;6.53;;
50689;SDS011;54375;48.298;11.238;2022-10-26T05:25:41;13.35;;;6.43;;
50689;SDS011;54375;48.298;11.238;2022-10-26T05:28:42;12.25;;;6.35;;
50689;SDS011;54375;48.298;11.238;2022-10-26T05:31:43;9.13;;;5.35;;
50689;SDS011;54375;48.298;11.238;2022-10-26T05:34:44;8.63;;;4.70;;
50689;SDS011;54375;48.298;11.238;2022-10-26T05:37:47;9.25;;;5.30;;
50689;SDS011;54375;48.298;11.238;2022-10-26T05:40:49;8.00;;;4.57;;
50689;SDS011;54375;48.298;11.238;2022-10-26T05:43:51;5.80;;;3.95;;
50689;SDS011;54375;48.298;11.238;2022-10-26T05:46:52;7.37;;;4.10;;
50689;SDS011;54375;48.298;11.238;2022-10-26T05:49:53;8.87;;;4.77;;
50689;SDS011;54375;48.298;11.238;2022-10-26T05:52:55;7.72;;;4.45;;
50689;SDS011;54375;48.298;11.238;2022-10-26T05:55:57;7.15;;;4.50;;
50689;SDS011;54375;48.298;11.238;2022-10-26T06:02:03;7.03;;;4.10;;
50689;SDS011;54375;48.298;11.238;2022-10-26T06:05:11;7.18;;;4.55;;
50689;SDS011;54375;48.298;11.238;2022-10-26T06:08:23;9.57;;;4.43;;
50689;SDS011;54375;48.298;11.238;2022-10-26T06:11:25;7.97;;;4.80;;
50689;SDS011;54375;48.298;11.238;2022-10-26T06:14:26;8.30;;;5.20;;
50689;SDS011;54375;48.298;11.238;2022-10-26T06:17:34;8.13;;;4.95;;
50689;SDS011;54375;48.298;11.238;2022-10-26T06:20:44;8.60;;;4.00;;
50689;SDS011;54375;48.298;11.238;2022-10-26T06:23:54;9.65;;;4.10;;
50689;SDS011;54375;48.298;11.238;2022-10-26T06:26:59;6.30;;;4.05;;
50689;SDS011;54375;48.298;11.238;2022-10-26T06:30:08;7.43;;;3.72;;
50689;SDS011;54375;48.298;11.238;2022-10-26T06:33:11;7.75;;;3.92;;
50689;SDS011;54375;48.298;11.238;2022-10-26T06:36:17;6.15;;;4.20;;
50689;SDS011;54375;48.298;11.238;2022-10-26T06:39:22;6.97;;;4.07;;
50689;SDS011;54375;48.298;11.238;2022-10-26T06:42:27;6.90;;;3.38;;
50689;SDS011;54375;48.298;11.238;2022-10-26T06:45:30;7.25;;;4.05;;
50689;SDS011;54375;48.298;11.238;2022-10-26T06:48:33;5.47;;;3.50;;
50689;SDS011;54375;48.298;11.238;2022-10-26T06:51:45;6.03;;;3.30;;
50689;SDS011;54375;48.298;11.238;2022-10-26T06:54:52;6.70;;;3.90;;
50689;SDS011;54375;48.298;11.238;2022-10-26T06:57:55;6.93;;;3.75;;
50689;SDS011;54375;48.298;11.238;2022-10-26T07:00:56;4.70;;;3.43;;
50689;SDS011;54375;48.298;11.238;2022-10-26T07:03:57;7.72;;;3.38;;
50689;SDS011;54375;48.298;11.238;2022-10-26T07:06:58;6.20;;;2.92;;
50689;SDS011;54375;48.298;11.238;2022-10-26T07:10:01;6.27;;;2.87;;
50689;SDS011;54375;48.298;11.238;2022-10-26T07:13:02;8.15;;;3.60;;
50689;SDS011;54375;48.298;11.238;2022-10-26T07:16:03;5.90;;;3.20;;
50689;SDS011;54375;48.298;11.238;2022-10-26T07:19:05;6.10;;;4.07;;
50689;SDS011;54375;48.298;11.238;2022-10-26T07:22:06;5.75;;;3.17;;
50689;SDS011;54375;48.298;11.238;2022-10-26T07:25:09;7.07;;;4.07;;
50689;SDS011;54375;48.298;11.238;2022-10-26T07:28:10;4.90;;;3.13;;
50689;SDS011;54375;48.298;11.238;2022-10-26T07:31:11;4.27;;;3.03;;
50689;SDS011;54375;48.298;11.238;2022-10-26T07:34:12;4.20;;;2.43;;
50689;SDS011;54375;48.298;11.238;2022-10-26T07:37:13;5.97;;;2.97;;
50689;SDS011;54375;48.298;11.238;2022-10-26T07:40:16;4.47;;;2.55;;
50689;SDS011;54375;48.298;11.238;2022-10-26T07:43:17;4.82;;;2.42;;
50689;SDS011;54375;48.298;11.238;2022-10-26T07:46:18;4.72;;;2.45;;
50689;SDS011;54375;48.298;11.238;2022-10-26T07:49:19;6.83;;;2.40;;
50689;SDS011;54375;48.298;11.238;2022-10-26T07:52:20;5.03;;;2.40;;
50689;SDS011;54375;48.298;11.238;2022-10-26T07:55:22;4.37;;;2.23;;
50689;SDS011;54375;48.298;11.238;2022-10-26T07:58:24;5.70;;;2.70;;
50689;SDS011;54375;48.298;11.238;2022-10-26T08:04:26;6.30;;;3.30;;
50689;SDS011;54375;48.298;11.238;2022-10-26T08:07:27;7.90;;;4.00;;
50689;SDS011;54375;48.298;11.238;2022-10-26T08:10:30;5.03;;;3.00;;
50689;SDS011;54375;48.298;11.238;2022-10-26T08:13:31;5.63;;;2.13;;
50689;SDS011;54375;48.298;11.238;2022-10-26T08:16:32;7.25;;;2.67;;
50689;SDS011;54375;48.298;11.238;2022-10-26T08:19:33;6.63;;;2.80;;
50689;SDS011;54375;48.298;11.238;2022-10-26T08:22:34;6.45;;;2.90;;
50689;SDS011;54375;48.298;11.238;2022-10-26T08:25:37;5.37;;;2.23;;
50689;SDS011;54375;48.298;11.238;2022-10-26T08:28:38;7.13;;;2.67;;
50689;SDS011;54375;48.298;11.238;2022-10-26T08:31:39;6.90;;;2.53;;
50689;SDS011;54375;48.298;11.238;2022-10-26T08:34:40;5.28;;;2.15;;
50689;SDS011;54375;48.298;11.238;2022-10-26T08:37:42;5.47;;;2.20;;
50689;SDS011;54375;48.298;11.238;2022-10-26T08:40:44;4.23;;;1.87;;
50689;SDS011;54375;48.298;11.238;2022-10-26T08:43:46;4.32;;;2.13;;
50689;SDS011;54375;48.298;11.238;2022-10-26T08:46:52;6.75;;;3.10;;
50689;SDS011;54375;48.298;11.238;2022-10-26T08:49:58;10.40;;;4.25;;
50689;SDS011;54375;48.298;11.238;2022-10-26T08:53:02;5.95;;;2.95;;
50689;SDS011;54375;48.298;11.238;2022-10-26T08:56:10;6.40;;;2.78;;
50689;SDS011;54375;48.298;11.238;2022-10-26T08:59:16;8.52;;;4.18;;
50689;SDS011;54375;48.298;11.238;2022-10-26T09:02:27;6.57;;;3.65;;
50689;SDS011;54375;48.298;11.238;2022-10-26T09:05:29;5.68;;;2.65;;
50689;SDS011;54375;48.298;11.238;2022-10-26T09:08:37;6.65;;;2.50;;
50689;SDS011;54375;48.298;11.238;2022-10-26T09:15:01;4.78;;;2.30;;
50689;SDS011;54375;48.298;11.238;2022-10-26T09:18:15;6.53;;;2.42;;
50689;SDS011;54375;48.298;11.238;2022-10-26T09:21:25;5.80;;;2.20;;
50689;SDS011;54375;48.298;11.238;2022-10-26T09:24:33;4.32;;;2.47;;
50689;SDS011;54375;48.298;11.238;2022-10-26T09:27:43;6.18;;;2.35;;
50689;SDS011;54375;48.298;11.238;2022-10-26T09:30:47;7.07;;;2.75;;
50689;SDS011;54375;48.298;11.238;2022-10-26T09:33:48;4.90;;;2.35;;
50689;SDS011;54375;48.298;11.238;2022-10-26T09:36:52;5.30;;;2.40;;
50689;SDS011;54375;48.298;11.238;2022-10-26T09:42:59;4.72;;;1.95;;
50689;SDS011;54375;48.298;11.238;2022-10-26T09:46:04;5.78;;;2.10;;
50689;SDS011;54375;48.298;11.238;2022-10-26T09:49:07;4.68;;;1.88;;
50689;SDS011;54375;48.298;11.238;2022-10-26T09:52:12;4.63;;;1.58;;
50689;SDS011;54375;48.298;11.238;2022-10-26T09:55:13;13.50;;;4.43;;
50689;SDS011;54375;48.298;11.238;2022-10-26T09:58:16;15.75;;;6.72;;
50689;SDS011;54375;48.298;11.238;2022-10-26T10:01:21;7.88;;;3.75;;
50689;SDS011;54375;48.298;11.238;2022-10-26T10:04:29;8.90;;;2.22;;
50689;SDS011;54375;48.298;11.238;2022-10-26T10:07:31;3.00;;;1.42;;
50689;SDS011;54375;48.298;11.238;2022-10-26T10:10:32;15.77;;;2.30;;
50689;SDS011;54375;48.298;11.238;2022-10-26T10:13:35;5.95;;;2.03;;
50689;SDS011;54375;48.298;11.238;2022-10-26T10:16:38;5.00;;;1.67;;
50689;SDS011;54375;48.298;11.238;2022-10-26T10:22:51;6.68;;;1.85;;
50689;SDS011;54375;48.298;11.238;2022-10-26T10:25:57;7.25;;;1.58;;
50689;SDS011;54375;48.298;11.238;2022-10-26T10:29:08;5.80;;;2.20;;
50689;SDS011;54375;48.298;11.238;2022-10-26T10:32:16;3.05;;;1.30;;
50689;SDS011;54375;48.298;11.238;2022-10-26T10:35:21;5.97;;;1.70;;
50689;SDS011;54375;48.298;11.238;2022-10-26T10:38:24;4.47;;;1.38;;
50689;SDS011;54375;48.298;11.238;2022-10-26T10:41:25;6.10;;;1.88;;
50689;SDS011;54375;48.298;11.238;2022-10-26T10:44:31;6.68;;;1.95;;
50689;SDS011;54375;48.298;11.238;2022-10-26T10:47:34;6.68;;;1.55;;
50689;SDS011;54375;48.298;11.238;2022-10-26T10:50:35;3.30;;;1.40;;
50689;SDS011;54375;48.298;11.238;2022-10-26T10:53:42;3.05;;;1.48;;
50689;SDS011;54375;48.298;11.238;2022-10-26T10:56:45;4.88;;;1.40;;
50689;SDS011;54375;48.298;11.238;2022-10-26T11:00:02;3.10;;;1.50;;
50689;SDS011;54375;48.298;11.238;2022-10-26T11:03:17;8.43;;;1.30;;
50689;SDS011;54375;48.298;11.238;2022-10-26T11:06:32;4.03;;;1.60;;
50689;SDS011;54375;48.298;11.238;2022-10-26T11:09:38;7.32;;;1.85;;
50689;SDS011;54375;48.298;11.238;2022-10-26T11:12:43;6.50;;;1.83;;
50689;SDS011;54375;48.298;11.238;2022-10-26T11:15:51;7.25;;;1.80;;
50689;SDS011;54375;48.298;11.238;2022-10-26T11:19:00;7.63;;;1.52;;
50689;SDS011;54375;48.298;11.238;2022-10-26T11:22:08;5.13;;;1.50;;
50689;SDS011;54375;48.298;11.238;2022-10-26T11:25:15;4.82;;;1.77;;
50689;SDS011;54375;48.298;11.238;2022-10-26T11:28:23;9.45;;;2.83;;
50689;SDS011;54375;48.298;11.238;2022-10-26T11:31:36;9.77;;;3.13;;
50689;SDS011;54375;48.298;11.238;2022-10-26T11:34:42;11.02;;;4.13;;
50689;SDS011;54375;48.298;11.238;2022-10-26T11:37:49;8.57;;;2.55;;
50689;SDS011;54375;48.298;11.238;2022-10-26T11:40:54;8.18;;;2.03;;
50689;SDS011;54375;48.298;11.238;2022-10-26T11:44:00;4.65;;;1.73;;
50689;SDS011;54375;48.298;11.238;2022-10-26T11:47:11;12.13;;;2.45;;
50689;SDS011;54375;48.298;11.238;2022-10-26T11:50:16;9.98;;;1.90;;
50689;SDS011;54375;48.298;11.238;2022-10-26T11:53:23;9.35;;;1.98;;
50689;SDS011;54375;48.298;11.238;2022-10-26T11:56:26;11.48;;;2.13;;
50689;SDS011;54375;48.298;11.238;2022-10-26T11:59:32;5.80;;;1.80;;
50689;SDS011;54375;48.298;11.238;2022-10-26T12:02:40;9.45;;;2.28;;
50689;SDS011;54375;48.298;11.238;2022-10-26T12:05:43;6.70;;;1.80;;
50689;SDS011;54375;48.298;11.238;2022-10-26T12:08:49;9.38;;;2.08;;
50689;SDS011;54375;48.298;11.238;2022-10-26T12:11:57;9.35;;;2.13;;
50689;SDS011;54375;48.298;11.238;2022-10-26T12:15:06;7.07;;;1.70;;
50689;SDS011;54375;48.298;11.238;2022-10-26T12:18:22;6.57;;;1.70;;
50689;SDS011;54375;48.298;11.238;2022-10-26T12:21:28;6.63;;;2.05;;
50689;SDS011;54375;48.298;11.238;2022-10-26T12:24:31;8.95;;;2.17;;
50689;SDS011;54375;48.298;11.238;2022-10-26T12:27:47;8.88;;;1.98;;
50689;SDS011;54375;48.298;11.238;2022-10-26T12:30:50;9.20;;;1.85;;
50689;SDS011;54375;48.298;11.238;2022-10-26T12:33:52;6.95;;;2.20;;
50689;SDS011;54375;48.298;11.238;2022-10-26T12:37:09;8.13;;;2.17;;
50689;SDS011;54375;48.298;11.238;2022-10-26T12:40:40;7.28;;;2.10;;
50689;SDS011;54375;48.298;11.238;2022-10-26T12:43:42;6.05;;;2.22;;
50689;SDS011;54375;48.298;11.238;2022-10-26T12:46:43;8.02;;;2.47;;
50689;SDS011;54375;48.298;11.238;2022-10-26T12:53:18;7.82;;;2.05;;
50689;SDS011;54375;48.298;11.238;2022-10-26T12:56:23;9.07;;;1.90;;
50689;SDS011;54375;48.298;11.238;2022-10-26T12:59:31;11.70;;;2.17;;
50689;SDS011;54375;48.298;11.238;2022-10-26T13:02:44;6.95;;;1.88;;
50689;SDS011;54375;48.298;11.238;2022-10-26T13:06:01;9.13;;;2.15;;
50689;SDS011;54375;48.298;11.238;2022-10-26T13:09:19;7.85;;;2.65;;
50689;SDS011;54375;48.298;11.238;2022-10-26T13:12:21;9.57;;;2.75;;
50689;SDS011;54375;48.298;11.238;2022-10-26T13:15:23;8.68;;;2.15;;
50689;SDS011;54375;48.298;11.238;2022-10-26T13:18:27;11.20;;;2.20;;
50689;SDS011;54375;48.298;11.238;2022-10-26T13:21:30;10.20;;;2.30;;
50689;SDS011;54375;48.298;11.238;2022-10-26T13:24:47;7.65;;;2.10;;
50689;SDS011;54375;48.298;11.238;2022-10-26T13:28:02;7.63;;;2.08;;
50689;SDS011;54375;48.298;11.238;2022-10-26T13:31:07;7.10;;;1.98;;
50689;SDS011;54375;48.298;11.238;2022-10-26T13:34:13;11.10;;;2.47;;
50689;SDS011;54375;48.298;11.238;2022-10-26T13:37:18;10.68;;;2.20;;
50689;SDS011;54375;48.298;11.238;2022-10-26T13:40:23;9.00;;;2.13;;
50689;SDS011;54375;48.298;11.238;2022-10-26T13:43:26;6.30;;;2.00;;
50689;SDS011;54375;48.298;11.238;2022-10-26T13:46:27;10.45;;;2.58;;
50689;SDS011;54375;48.298;11.238;2022-10-26T13:52:36;6.20;;;2.13;;
50689;SDS011;54375;48.298;11.238;2022-10-26T13:55:43;6.10;;;1.92;;
50689;SDS011;54375;48.298;11.238;2022-10-26T13:58:49;11.45;;;2.42;;
50689;SDS011;54375;48.298;11.238;2022-10-26T14:02:04;7.45;;;2.20;;
50689;SDS011;54375;48.298;11.238;2022-10-26T14:05:08;13.23;;;2.33;;
50689;SDS011;54375;48.298;11.238;2022-10-26T14:08:13;6.13;;;1.90;;
50689;SDS011;54375;48.298;11.238;2022-10-26T14:11:18;6.88;;;2.20;;
50689;SDS011;54375;48.298;11.238;2022-10-26T14:14:22;8.55;;;2.40;;
50689;SDS011;54375;48.298;11.238;2022-10-26T14:17:25;7.43;;;2.00;;
50689;SDS011;54375;48.298;11.238;2022-10-26T14:20:26;8.43;;;2.15;;
50689;SDS011;54375;48.298;11.238;2022-10-26T14:23:33;14.70;;;2.20;;
50689;SDS011;54375;48.298;11.238;2022-10-26T14:26:37;9.10;;;2.20;;
50689;SDS011;54375;48.298;11.238;2022-10-26T14:29:40;10.05;;;2.25;;
50689;SDS011;54375;48.298;11.238;2022-10-26T14:32:41;8.70;;;2.58;;
50689;SDS011;54375;48.298;11.238;2022-10-26T14:35:42;11.20;;;1.98;;
50689;SDS011;54375;48.298;11.238;2022-10-26T14:38:45;9.93;;;2.13;;
50689;SDS011;54375;48.298;11.238;2022-10-26T14:41:49;9.27;;;2.10;;
50689;SDS011;54375;48.298;11.238;2022-10-26T14:44:53;8.45;;;2.60;;
50689;SDS011;54375;48.298;11.238;2022-10-26T14:47:55;9.18;;;2.65;;
50689;SDS011;54375;48.298;11.238;2022-10-26T14:50:57;8.88;;;2.47;;
50689;SDS011;54375;48.298;11.238;2022-10-26T14:54:04;11.60;;;2.55;;
50689;SDS011;54375;48.298;11.238;2022-10-26T14:57:31;9.73;;;2.28;;
50689;SDS011;54375;48.298;11.238;2022-10-26T15:00:34;8.00;;;1.92;;
50689;SDS011;54375;48.298;11.238;2022-10-26T15:03:35;6.63;;;2.33;;
50689;SDS011;54375;48.298;11.238;2022-10-26T15:09:43;10.57;;;2.65;;
50689;SDS011;54375;48.298;11.238;2022-10-26T15:12:45;7.07;;;1.80;;
50689;SDS011;54375;48.298;11.238;2022-10-26T15:15:46;7.75;;;2.45;;
50689;SDS011;54375;48.298;11.238;2022-10-26T15:18:49;10.63;;;2.20;;
50689;SDS011;54375;48.298;11.238;2022-10-26T15:21:53;10.63;;;2.50;;
50689;SDS011;54375;48.298;11.238;2022-10-26T15:28:07;6.90;;;2.38;;
50689;SDS011;54375;48.298;11.238;2022-10-26T15:31:23;7.47;;;2.30;;
50689;SDS011;54375;48.298;11.238;2022-10-26T15:34:29;6.18;;;2.15;;
50689;SDS011;54375;48.298;11.238;2022-10-26T15:37:30;7.25;;;1.80;;
50689;SDS011;54375;48.298;11.238;2022-10-26T15:40:33;6.78;;;2.20;;
50689;SDS011;54375;48.298;11.238;2022-10-26T15:43:34;8.43;;;2.30;;
50689;SDS011;54375;48.298;11.238;2022-10-26T15:46:35;6.13;;;2.67;;
50689;SDS011;54375;48.298;11.238;2022-10-26T15:49:36;8.63;;;2.97;;
50689;SDS011;54375;48.298;11.238;2022-10-26T15:52:37;9.38;;;2.33;;
50689;SDS011;54375;48.298;11.238;2022-10-26T15:55:40;6.50;;;1.90;;
50689;SDS011;54375;48.298;11.238;2022-10-26T15:58:41;5.20;;;2.05;;
50689;SDS011;54375;48.298;11.238;2022-10-26T16:01:43;5.07;;;1.63;;
50689;SDS011;54375;48.298;11.238;2022-10-26T16:04:44;5.65;;;1.90;;
50689;SDS011;54375;48.298;11.238;2022-10-26T16:07:45;6.15;;;2.20;;
50689;SDS011;54375;48.298;11.238;2022-10-26T16:10:50;7.07;;;2.10;;
50689;SDS011;54375;48.298;11.238;2022-10-26T16:13:50;5.10;;;1.77;;
50689;SDS011;54375;48.298;11.238;2022-10-26T16:16:52;4.20;;;1.88;;
50689;SDS011;54375;48.298;11.238;2022-10-26T16:19:53;6.60;;;2.10;;
50689;SDS011;54375;48.298;11.238;2022-10-26T16:22:53;6.73;;;2.27;;
50689;SDS011;54375;48.298;11.238;2022-10-26T16:25:56;5.68;;;2.10;;
50689;SDS011;54375;48.298;11.238;2022-10-26T16:28:57;6.15;;;1.98;;
50689;SDS011;54375;48.298;11.238;2022-10-26T16:31:57;9.45;;;3.08;;
50689;SDS011;54375;48.298;11.238;2022-10-26T16:34:59;5.25;;;1.98;;
50689;SDS011;54375;48.298;11.238;2022-10-26T16:38:00;7.97;;;2.45;;
50689;SDS011;54375;48.298;11.238;2022-10-26T16:41:03;5.10;;;2.15;;
50689;SDS011;54375;48.298;11.238;2022-10-26T16:44:05;8.57;;;2.53;;
50689;SDS011;54375;48.298;11.238;2022-10-26T16:47:06;7.28;;;2.40;;
50689;SDS011;54375;48.298;11.238;2022-10-26T16:50:08;5.40;;;2.30;;
50689;SDS011;54375;48.298;11.238;2022-10-26T16:53:10;6.53;;;2.00;;
50689;SDS011;54375;48.298;11.238;2022-10-26T16:56:13;7.47;;;2.03;;
50689;SDS011;54375;48.298;11.238;2022-10-26T16:59:15;5.38;;;2.10;;
50689;SDS011;54375;48.298;11.238;2022-10-26T17:02:16;6.73;;;2.13;;
50689;SDS011;54375;48.298;11.238;2022-10-26T17:05:17;6.78;;;2.20;;
50689;SDS011;54375;48.298;11.238;2022-10-26T17:08:18;4.40;;;1.85;;
50689;SDS011;54375;48.298;11.238;2022-10-26T17:11:21;7.40;;;2.03;;
50689;SDS011;54375;48.298;11.238;2022-10-26T17:14:21;6.60;;;2.20;;
50689;SDS011;54375;48.298;11.238;2022-10-26T17:17:23;5.80;;;2.33;;
50689;SDS011;54375;48.298;11.238;2022-10-26T17:20:24;19.38;;;8.40;;
50689;SDS011;54375;48.298;11.238;2022-10-26T17:23:25;14.10;;;5.95;;
50689;SDS011;54375;48.298;11.238;2022-10-26T17:26:28;9.45;;;5.00;;
50689;SDS011;54375;48.298;11.238;2022-10-26T17:29:28;12.55;;;5.43;;
50689;SDS011;54375;48.298;11.238;2022-10-26T17:32:29;14.80;;;6.45;;
50689;SDS011;54375;48.298;11.238;2022-10-26T17:35:31;13.50;;;7.00;;
50689;SDS011;54375;48.298;11.238;2022-10-26T17:38:32;12.45;;;6.25;;
50689;SDS011;54375;48.298;11.238;2022-10-26T17:41:36;12.75;;;6.68;;
50689;SDS011;54375;48.298;11.238;2022-10-26T17:44:37;13.15;;;5.82;;
50689;SDS011;54375;48.298;11.238;2022-10-26T17:47:38;12.80;;;5.67;;
50689;SDS011;54375;48.298;11.238;2022-10-26T17:50:39;8.55;;;4.05;;
50689;SDS011;54375;48.298;11.238;2022-10-26T17:53:39;10.17;;;3.87;;
50689;SDS011;54375;48.298;11.238;2022-10-26T17:56:42;9.70;;;3.25;;
50689;SDS011;54375;48.298;11.238;2022-10-26T17:59:46;8.35;;;3.00;;
50689;SDS011;54375;48.298;11.238;2022-10-26T18:02:47;9.55;;;2.67;;
50689;SDS011;54375;48.298;11.238;2022-10-26T18:05:48;5.90;;;2.85;;
50689;SDS011;54375;48.298;11.238;2022-10-26T18:08:49;6.88;;;3.17;;
50689;SDS011;54375;48.298;11.238;2022-10-26T18:11:52;9.10;;;2.95;;
50689;SDS011;54375;48.298;11.238;2022-10-26T18:14:53;10.48;;;3.10;;
50689;SDS011;54375;48.298;11.238;2022-10-26T18:17:54;8.93;;;2.75;;
50689;SDS011;54375;48.298;11.238;2022-10-26T18:20:58;6.03;;;2.80;;
50689;SDS011;54375;48.298;11.238;2022-10-26T18:23:59;6.90;;;2.85;;
50689;SDS011;54375;48.298;11.238;2022-10-26T18:27:02;9.07;;;2.88;;
50689;SDS011;54375;48.298;11.238;2022-10-26T18:30:03;10.35;;;3.00;;
50689;SDS011;54375;48.298;11.238;2022-10-26T18:33:06;7.38;;;2.45;;
50689;SDS011;54375;48.298;11.238;2022-10-26T18:36:07;15.30;;;3.50;;
50689;SDS011;54375;48.298;11.238;2022-10-26T18:39:09;8.25;;;3.30;;
50689;SDS011;54375;48.298;11.238;2022-10-26T18:42:12;4.75;;;2.58;;
50689;SDS011;54375;48.298;11.238;2022-10-26T18:45:13;10.05;;;3.05;;